createdAt,value
2018-03-03T00:00:40.566Z,94.27
2018-03-03T00:01:40.567Z,93.61
2018-03-03T00:02:40.574Z,92.47
2018-03-03T00:03:40.571Z,92.38
2018-03-03T00:04:40.574Z,92.47
2018-03-03T00:05:40.579Z,92.76
2018-03-03T00:06:40.593Z,93.04
2018-03-03T00:07:40.586Z,92.47
2018-03-03T00:08:40.585Z,92.76
2018-03-03T00:09:40.623Z,93.42
2018-03-03T00:10:40.599Z,92.47
2018-03-03T00:11:40.594Z,92.57
2018-03-03T00:12:40.597Z,92.76
2018-03-03T00:13:40.598Z,91.82
2018-03-03T00:14:40.641Z,91.72
2018-03-03T00:15:40.602Z,91.86
2018-03-03T00:16:40.604Z,92.61
2018-03-03T00:17:40.605Z,92.80
2018-03-03T00:18:40.621Z,93.28
2018-03-03T00:19:40.614Z,93.84
2018-03-03T00:20:40.615Z,93.94
2018-03-03T00:21:40.620Z,94.03
2018-03-03T00:22:40.630Z,94.51
2018-03-03T00:23:40.627Z,93.51
2018-03-03T00:24:40.623Z,92.85
2018-03-03T00:25:40.626Z,92.43
2018-03-03T00:26:40.627Z,91.39
2018-03-03T00:27:40.632Z,91.01
2018-03-03T00:28:40.635Z,91.30
2018-03-03T00:29:40.633Z,90.54
2018-03-03T00:30:40.642Z,90.45
2018-03-03T00:31:40.639Z,90.82
2018-03-03T00:32:40.649Z,90.92
2018-03-03T00:33:40.643Z,91.11
2018-03-03T00:34:40.647Z,91.77
2018-03-03T00:35:40.648Z,92.80
2018-03-03T00:36:40.651Z,92.43
2018-03-03T00:37:40.651Z,92.43
2018-03-03T00:38:40.660Z,93.28
2018-03-03T00:39:40.656Z,94.22
2018-03-03T00:40:40.660Z,94.93
2018-03-03T00:41:40.661Z,95.97
2018-03-03T00:42:40.666Z,95.87
2018-03-03T00:43:40.667Z,96.25
2018-03-03T00:44:40.671Z,96.25
2018-03-03T00:45:40.673Z,96.35
2018-03-03T00:46:40.674Z,96.06
2018-03-03T00:47:40.679Z,94.93
2018-03-03T00:48:40.679Z,94.37
2018-03-03T00:49:40.694Z,94.27
2018-03-03T00:50:40.684Z,94.46
2018-03-03T00:51:40.684Z,93.80
2018-03-03T00:52:40.717Z,93.23
2018-03-03T00:53:40.694Z,93.13
2018-03-03T00:54:40.691Z,92.85
2018-03-03T00:55:40.707Z,93.04
2018-03-03T00:56:40.695Z,93.32
2018-03-03T00:57:40.697Z,93.89
2018-03-03T00:58:40.721Z,93.51
2018-03-03T00:59:40.706Z,94.18
2018-03-03T01:00:40.707Z,94.84
2018-03-03T01:01:40.709Z,94.56
2018-03-03T01:02:40.712Z,94.93
2018-03-03T01:03:40.712Z,95.12
2018-03-03T01:04:40.721Z,95.12
2018-03-03T01:05:40.718Z,95.50
2018-03-03T01:06:40.731Z,95.59
2018-03-03T01:07:40.733Z,95.68
2018-03-03T01:08:40.727Z,95.50
2018-03-03T01:09:40.730Z,95.59
2018-03-03T01:10:40.738Z,95.87
2018-03-03T01:11:40.737Z,95.59
2018-03-03T01:12:40.737Z,95.59
2018-03-03T01:13:40.755Z,95.31
2018-03-03T01:14:40.754Z,95.50
2018-03-03T01:15:40.745Z,95.12
2018-03-03T01:16:40.756Z,95.59
2018-03-03T01:17:40.747Z,95.68
2018-03-03T01:18:40.751Z,96.06
2018-03-03T01:19:40.757Z,96.54
2018-03-03T01:20:40.759Z,97.20
2018-03-03T01:21:40.759Z,96.91
2018-03-03T01:22:40.774Z,97.39
2018-03-03T01:23:40.766Z,98.05
2018-03-03T01:24:40.776Z,98.43
2018-03-03T01:25:40.769Z,98.80
2018-03-03T01:26:40.773Z,98.14
2018-03-03T01:27:40.773Z,98.99
2018-03-03T01:28:40.787Z,98.71
2018-03-03T01:29:40.777Z,98.80
2018-03-03T01:30:40.782Z,99.27
2018-03-03T01:31:40.791Z,98.99
2018-03-03T01:32:40.796Z,99.18
2018-03-03T01:33:40.801Z,99.18
2018-03-03T01:34:40.796Z,99.99
2018-03-03T01:35:40.807Z,99.99
2018-03-03T01:36:40.801Z,99.99
2018-03-03T01:37:40.798Z,99.99
2018-03-03T01:38:40.803Z,99.99
2018-03-03T01:39:40.804Z,99.99
2018-03-03T01:40:40.810Z,99.99
2018-03-03T01:41:40.814Z,99.99
2018-03-03T01:42:40.823Z,99.99
2018-03-03T01:43:40.815Z,99.99
2018-03-03T01:44:40.820Z,99.99
2018-03-03T01:45:40.822Z,99.99
2018-03-03T01:46:40.823Z,99.99
2018-03-03T01:47:40.827Z,99.99
2018-03-03T01:48:40.839Z,99.99
2018-03-03T01:49:40.835Z,99.99
2018-03-03T01:50:40.837Z,99.99
2018-03-03T01:51:40.837Z,99.99
2018-03-03T01:52:40.839Z,99.99
2018-03-03T01:53:40.846Z,99.99
2018-03-03T01:54:40.848Z,99.99
2018-03-03T01:55:40.860Z,99.99
2018-03-03T01:56:40.850Z,99.99
2018-03-03T01:57:40.857Z,99.99
2018-03-03T01:58:40.858Z,99.99
2018-03-03T01:59:40.859Z,99.99
2018-03-03T02:00:40.885Z,99.99
2018-03-03T02:01:40.861Z,99.99
2018-03-03T02:02:40.868Z,99.99
2018-03-03T02:03:40.870Z,99.99
2018-03-03T02:04:40.872Z,99.99
2018-03-03T02:05:40.874Z,99.99
2018-03-03T02:06:40.880Z,99.99
2018-03-03T02:07:40.879Z,99.99
2018-03-03T02:08:40.882Z,99.99
2018-03-03T02:09:40.886Z,99.99
2018-03-03T02:10:40.889Z,99.99
2018-03-03T02:11:40.889Z,99.99
2018-03-03T02:12:41.776Z,99.99
2018-03-03T02:13:40.891Z,99.99
2018-03-03T02:14:41.616Z,99.99
2018-03-03T02:15:40.911Z,99.99
2018-03-03T02:16:40.902Z,99.99
2018-03-03T02:17:40.905Z,99.99
2018-03-03T02:18:40.910Z,99.99
2018-03-03T02:19:40.915Z,99.99
2018-03-03T02:20:40.923Z,99.99
2018-03-03T02:21:40.916Z,99.99
2018-03-03T02:22:40.918Z,99.99
2018-03-03T02:23:40.926Z,99.99
2018-03-03T02:24:40.929Z,99.99
2018-03-03T02:25:40.925Z,99.99
2018-03-03T02:26:40.929Z,99.99
2018-03-03T02:27:40.932Z,99.99
2018-03-03T02:28:40.934Z,99.99
2018-03-03T02:29:40.934Z,99.99
2018-03-03T02:30:40.944Z,99.99
2018-03-03T02:31:40.952Z,99.99
2018-03-03T02:32:40.944Z,99.99
2018-03-03T02:33:40.948Z,99.99
2018-03-03T02:34:40.948Z,99.99
2018-03-03T02:35:40.957Z,99.99
2018-03-03T02:36:40.963Z,99.99
2018-03-03T02:37:40.958Z,99.99
2018-03-03T02:38:40.959Z,99.99
2018-03-03T02:39:40.960Z,99.99
2018-03-03T02:40:40.964Z,99.99
2018-03-03T02:41:40.966Z,99.99
2018-03-03T02:42:40.983Z,99.99
2018-03-03T02:43:40.976Z,99.99
2018-03-03T02:44:40.980Z,99.99
2018-03-03T02:45:40.974Z,99.99
2018-03-03T02:46:40.991Z,99.99
2018-03-03T02:47:40.984Z,99.99
2018-03-03T02:48:40.995Z,99.99
2018-03-03T02:49:40.995Z,99.99
2018-03-03T02:50:40.989Z,99.99
2018-03-03T02:51:40.993Z,99.99
2018-03-03T02:52:40.996Z,99.99
2018-03-03T02:53:40.998Z,99.99
2018-03-03T02:54:41.011Z,99.99
2018-03-03T02:55:41.004Z,99.99
2018-03-03T02:56:41.012Z,99.99
2018-03-03T02:57:41.019Z,99.99
2018-03-03T02:58:41.015Z,99.99
2018-03-03T02:59:41.019Z,99.99
2018-03-03T03:00:41.025Z,99.99
2018-03-03T03:01:41.015Z,99.99
2018-03-03T03:02:41.020Z,99.99
2018-03-03T03:03:41.034Z,99.99
2018-03-03T03:04:41.032Z,99.99
2018-03-03T03:05:41.025Z,99.99
2018-03-03T03:06:41.029Z,99.99
2018-03-03T03:07:41.032Z,99.99
2018-03-03T03:08:41.036Z,99.99
2018-03-03T03:09:41.052Z,99.99
2018-03-03T03:10:41.043Z,99.99
2018-03-03T03:11:41.050Z,99.99
2018-03-03T03:12:41.065Z,99.99
2018-03-03T03:13:41.048Z,99.99
2018-03-03T03:14:41.054Z,99.99
2018-03-03T03:15:41.058Z,99.99
2018-03-03T03:16:41.080Z,99.99
2018-03-03T03:17:41.060Z,99.99
2018-03-03T03:18:41.061Z,99.99
2018-03-03T03:19:41.064Z,99.99
2018-03-03T03:20:41.067Z,99.99
2018-03-03T03:21:41.072Z,99.99
2018-03-03T03:22:41.074Z,99.99
2018-03-03T03:23:41.118Z,99.99
2018-03-03T03:24:41.077Z,99.99
2018-03-03T03:25:41.123Z,99.99
2018-03-03T03:26:41.085Z,99.99
2018-03-03T03:27:41.093Z,99.99
2018-03-03T03:28:41.092Z,99.99
2018-03-03T03:29:41.088Z,99.99
2018-03-03T03:30:41.092Z,99.99
2018-03-03T03:31:41.100Z,99.99
2018-03-03T03:32:41.096Z,99.99
2018-03-03T03:33:41.098Z,99.99
2018-03-03T03:34:41.102Z,99.99
2018-03-03T03:35:41.104Z,99.99
2018-03-03T03:36:41.111Z,99.99
2018-03-03T03:37:41.119Z,99.99
2018-03-03T03:38:41.132Z,99.99
2018-03-03T03:39:41.115Z,99.99
2018-03-03T03:40:41.117Z,99.99
2018-03-03T03:41:41.121Z,99.99
2018-03-03T03:42:41.128Z,99.99
2018-03-03T03:43:41.148Z,99.99
2018-03-03T03:44:41.126Z,99.99
2018-03-03T03:45:41.130Z,99.99
2018-03-03T03:46:41.136Z,99.99
2018-03-03T03:47:41.138Z,99.99
2018-03-03T03:48:41.138Z,99.99
2018-03-03T03:49:41.147Z,99.99
2018-03-03T03:50:41.150Z,99.99
2018-03-03T03:51:41.146Z,99.99
2018-03-03T03:52:41.157Z,99.99
2018-03-03T03:53:41.149Z,99.99
2018-03-03T03:54:41.154Z,99.99
2018-03-03T03:55:41.157Z,99.99
2018-03-03T03:56:41.167Z,99.99
2018-03-03T03:57:41.171Z,99.99
2018-03-03T03:58:41.163Z,99.99
2018-03-03T03:59:41.169Z,99.99
2018-03-03T04:00:41.173Z,99.99
2018-03-03T04:01:41.179Z,99.99
2018-03-03T04:02:41.182Z,99.99
2018-03-03T04:03:41.177Z,99.99
2018-03-03T04:04:41.179Z,99.99
2018-03-03T04:05:41.185Z,99.99
2018-03-03T04:06:41.184Z,99.99
2018-03-03T04:07:41.188Z,99.99
2018-03-03T04:08:41.189Z,99.99
2018-03-03T04:09:41.195Z,99.99
2018-03-03T04:10:41.194Z,99.99
2018-03-03T04:11:41.200Z,99.99
2018-03-03T04:12:41.205Z,99.99
2018-03-03T04:13:41.254Z,99.99
2018-03-03T04:14:41.203Z,99.99
2018-03-03T04:15:41.207Z,99.99
2018-03-03T04:16:41.213Z,99.99
2018-03-03T04:17:41.211Z,99.99
2018-03-03T04:18:41.219Z,99.99
2018-03-03T04:19:41.217Z,99.99
2018-03-03T04:20:41.224Z,99.99
2018-03-03T04:21:41.219Z,99.99
2018-03-03T04:22:41.227Z,99.99
2018-03-03T04:23:41.226Z,99.99
2018-03-03T04:24:41.232Z,99.99
2018-03-03T04:25:41.236Z,99.99
2018-03-03T04:26:41.234Z,99.99
2018-03-03T04:27:41.246Z,99.99
2018-03-03T04:28:41.240Z,99.99
2018-03-03T04:29:41.241Z,99.99
2018-03-03T04:30:41.258Z,99.99
2018-03-03T04:31:41.246Z,99.99
2018-03-03T04:32:41.252Z,99.99
2018-03-03T04:33:41.250Z,99.99
2018-03-03T04:34:41.254Z,99.99
2018-03-03T04:35:41.255Z,99.99
2018-03-03T04:36:41.265Z,99.99
2018-03-03T04:37:41.263Z,99.99
2018-03-03T04:38:41.264Z,99.99
2018-03-03T04:39:41.267Z,99.99
2018-03-03T04:40:41.268Z,99.99
2018-03-03T04:41:41.271Z,99.99
2018-03-03T04:42:41.279Z,99.99
2018-03-03T04:43:41.275Z,99.99
2018-03-03T04:44:41.284Z,99.99
2018-03-03T04:45:41.281Z,99.99
2018-03-03T04:46:41.282Z,99.99
2018-03-03T04:47:41.291Z,99.99
2018-03-03T04:48:41.298Z,99.99
2018-03-03T04:49:41.291Z,99.99
2018-03-03T04:50:41.291Z,99.99
2018-03-03T04:51:41.300Z,99.99
2018-03-03T04:52:41.300Z,99.99
2018-03-03T04:53:41.305Z,99.99
2018-03-03T04:54:41.308Z,99.99
2018-03-03T04:55:41.311Z,99.99
2018-03-03T04:56:41.318Z,99.99
2018-03-03T04:57:41.312Z,99.99
2018-03-03T04:58:41.312Z,99.99
2018-03-03T04:59:41.346Z,99.99
2018-03-03T05:00:41.318Z,99.99
2018-03-03T05:01:41.324Z,99.99
2018-03-03T05:02:41.377Z,99.99
2018-03-03T05:03:41.326Z,99.99
2018-03-03T05:04:41.365Z,99.99
2018-03-03T05:05:41.327Z,99.99
2018-03-03T05:06:41.337Z,99.99
2018-03-03T05:07:41.344Z,99.99
2018-03-03T05:08:41.363Z,99.99
2018-03-03T05:09:41.343Z,99.99
2018-03-03T05:10:41.366Z,99.99
2018-03-03T05:11:41.351Z,99.99
2018-03-03T05:12:41.354Z,99.99
2018-03-03T05:13:41.352Z,99.99
2018-03-03T05:14:41.354Z,99.99
2018-03-03T05:15:41.379Z,99.99
2018-03-03T05:16:41.358Z,99.99
2018-03-03T05:17:41.365Z,99.99
2018-03-03T05:18:41.360Z,99.99
2018-03-03T05:19:41.402Z,99.99
2018-03-03T05:20:41.366Z,99.99
2018-03-03T05:21:41.371Z,99.99
2018-03-03T05:22:41.377Z,99.99
2018-03-03T05:23:41.380Z,99.99
2018-03-03T05:24:41.377Z,99.99
2018-03-03T05:25:41.377Z,99.99
2018-03-03T05:26:41.387Z,99.99
2018-03-03T05:27:41.386Z,99.99
2018-03-03T05:28:41.386Z,99.99
2018-03-03T05:29:41.389Z,99.99
2018-03-03T05:30:41.400Z,99.99
2018-03-03T05:31:41.393Z,99.99
2018-03-03T05:32:41.397Z,99.99
2018-03-03T05:33:41.398Z,99.99
2018-03-03T05:34:41.411Z,99.99
2018-03-03T05:35:41.402Z,99.99
2018-03-03T05:36:41.522Z,99.99
2018-03-03T05:37:41.405Z,99.99
2018-03-03T05:38:41.412Z,99.99
2018-03-03T05:39:41.412Z,99.99
2018-03-03T05:40:41.415Z,99.99
2018-03-03T05:41:41.415Z,99.99
2018-03-03T05:42:41.420Z,99.99
2018-03-03T05:43:41.423Z,99.99
2018-03-03T05:44:41.455Z,99.99
2018-03-03T05:45:41.424Z,99.99
2018-03-03T05:46:41.433Z,99.99
2018-03-03T05:47:41.432Z,99.99
2018-03-03T05:48:41.434Z,99.99
2018-03-03T05:49:41.440Z,99.99
2018-03-03T05:50:41.439Z,99.99
2018-03-03T05:51:41.446Z,99.99
2018-03-03T05:52:41.442Z,99.99
2018-03-03T05:53:41.446Z,99.99
2018-03-03T05:54:41.450Z,99.99
2018-03-03T05:55:41.454Z,99.99
2018-03-03T05:56:41.464Z,99.99
2018-03-03T05:57:41.464Z,99.99
2018-03-03T05:58:41.459Z,99.99
2018-03-03T05:59:41.463Z,99.99
2018-03-03T06:00:41.536Z,99.99
2018-03-03T06:01:41.466Z,99.99
2018-03-03T06:02:41.472Z,99.99
2018-03-03T06:03:41.467Z,99.99
2018-03-03T06:04:41.479Z,99.99
2018-03-03T06:05:41.473Z,99.99
2018-03-03T06:06:41.479Z,99.99
2018-03-03T06:07:41.487Z,99.99
2018-03-03T06:08:41.482Z,99.99
2018-03-03T06:09:41.489Z,99.99
2018-03-03T06:10:41.495Z,99.99
2018-03-03T06:11:41.490Z,99.99
2018-03-03T06:12:41.495Z,99.99
2018-03-03T06:13:41.492Z,99.99
2018-03-03T06:14:41.496Z,99.99
2018-03-03T06:15:41.523Z,99.99
2018-03-03T06:16:41.540Z,99.99
2018-03-03T06:17:41.517Z,99.99
2018-03-03T06:18:41.506Z,99.99
2018-03-03T06:19:41.510Z,99.99
2018-03-03T06:20:41.512Z,99.99
2018-03-03T06:21:41.514Z,99.99
2018-03-03T06:22:41.520Z,99.99
2018-03-03T06:23:41.519Z,99.99
2018-03-03T06:24:41.519Z,99.99
2018-03-03T06:25:41.520Z,99.99
2018-03-03T06:26:41.523Z,99.99
2018-03-03T06:27:41.525Z,99.99
2018-03-03T06:28:41.538Z,99.99
2018-03-03T06:29:41.541Z,99.99
2018-03-03T06:30:41.534Z,99.99
2018-03-03T06:31:41.545Z,99.99
2018-03-03T06:32:41.540Z,99.99
2018-03-03T06:33:41.540Z,99.99
2018-03-03T06:34:41.544Z,99.99
2018-03-03T06:35:41.552Z,99.99
2018-03-03T06:36:41.555Z,99.99
2018-03-03T06:37:41.551Z,99.99
2018-03-03T06:38:41.554Z,99.99
2018-03-03T06:39:41.557Z,99.99
2018-03-03T06:40:41.570Z,99.99
2018-03-03T06:41:41.562Z,99.99
2018-03-03T06:42:41.574Z,99.99
2018-03-03T06:43:41.566Z,99.99
2018-03-03T06:44:41.570Z,99.99
2018-03-03T06:45:41.575Z,99.99
2018-03-03T06:46:41.575Z,99.99
2018-03-03T06:47:41.578Z,99.99
2018-03-03T06:48:41.593Z,99.99
2018-03-03T06:49:41.582Z,99.99
2018-03-03T06:50:41.593Z,99.99
2018-03-03T06:51:41.587Z,99.99
2018-03-03T06:52:41.591Z,99.99
2018-03-03T06:53:41.594Z,99.99
2018-03-03T06:54:41.602Z,99.99
2018-03-03T06:55:41.599Z,99.99
2018-03-03T06:56:41.600Z,99.99
2018-03-03T06:57:41.601Z,99.99
2018-03-03T06:58:41.613Z,99.99
2018-03-03T06:59:41.612Z,99.99
2018-03-03T07:00:41.633Z,99.99
2018-03-03T07:01:41.616Z,99.99
2018-03-03T07:02:41.620Z,99.99
2018-03-03T07:03:41.621Z,99.99
2018-03-03T07:04:41.633Z,99.99
2018-03-03T07:05:41.628Z,99.99
2018-03-03T07:06:41.639Z,99.99
2018-03-03T07:07:41.636Z,99.99
2018-03-03T07:08:41.640Z,99.99
2018-03-03T07:09:41.636Z,99.99
2018-03-03T07:10:41.641Z,99.99
2018-03-03T07:11:41.647Z,99.99
2018-03-03T07:12:41.652Z,99.99
2018-03-03T07:13:41.658Z,99.99
2018-03-03T07:14:41.659Z,99.99
2018-03-03T07:15:41.664Z,99.99
2018-03-03T07:16:41.665Z,99.99
2018-03-03T07:17:41.663Z,99.99
2018-03-03T07:18:41.669Z,99.99
2018-03-03T07:19:41.676Z,99.99
2018-03-03T07:20:41.676Z,99.99
2018-03-03T07:21:41.675Z,99.99
2018-03-03T07:22:41.686Z,99.99
2018-03-03T07:23:41.683Z,99.99
2018-03-03T07:24:41.686Z,99.99
2018-03-03T07:25:41.700Z,99.99
2018-03-03T07:26:41.696Z,99.99
2018-03-03T07:27:41.698Z,99.99
2018-03-03T07:28:41.705Z,99.99
2018-03-03T07:29:41.708Z,99.99
2018-03-03T07:30:41.707Z,99.99
2018-03-03T07:31:41.716Z,99.99
2018-03-03T07:32:41.718Z,99.99
2018-03-03T07:33:41.742Z,99.99
2018-03-03T07:34:41.725Z,99.99
2018-03-03T07:35:41.731Z,99.99
2018-03-03T07:36:41.736Z,99.99
2018-03-03T07:37:41.762Z,99.99
2018-03-03T07:38:41.742Z,99.99
2018-03-03T07:39:41.742Z,99.99
2018-03-03T07:40:41.745Z,99.99
2018-03-03T07:41:41.750Z,99.99
2018-03-03T07:42:41.750Z,99.99
2018-03-03T07:43:41.756Z,99.99
2018-03-03T07:44:41.760Z,99.99
2018-03-03T07:45:41.770Z,99.99
2018-03-03T07:46:41.769Z,99.99
2018-03-03T07:47:41.778Z,99.99
2018-03-03T07:48:41.776Z,99.99
2018-03-03T07:49:41.778Z,99.99
2018-03-03T07:50:41.782Z,99.99
2018-03-03T07:51:41.792Z,99.99
2018-03-03T07:52:41.792Z,99.99
2018-03-03T07:53:41.794Z,99.99
2018-03-03T07:54:41.797Z,99.99
2018-03-03T07:55:41.804Z,99.99
2018-03-03T07:56:41.806Z,99.99
2018-03-03T07:57:41.822Z,99.99
2018-03-03T07:58:41.817Z,99.99
2018-03-03T07:59:41.824Z,99.99
2018-03-03T08:00:41.830Z,99.99
2018-03-03T08:01:41.833Z,99.99
2018-03-03T08:02:41.854Z,99.99
2018-03-03T08:03:41.848Z,99.99
2018-03-03T08:04:41.841Z,99.99
2018-03-03T08:05:41.847Z,99.38
2018-03-03T08:06:41.854Z,98.71
2018-03-03T08:07:41.853Z,99.19
2018-03-03T08:08:41.867Z,99.28
2018-03-03T08:09:41.868Z,99.09
2018-03-03T08:10:41.870Z,99.19
2018-03-03T08:11:41.875Z,98.33
2018-03-03T08:12:41.879Z,99.19
2018-03-03T08:13:41.887Z,99.47
2018-03-03T08:14:41.885Z,99.19
2018-03-03T08:15:41.901Z,98.81
2018-03-03T08:16:41.895Z,98.43
2018-03-03T08:17:41.899Z,99.00
2018-03-03T08:18:41.902Z,98.58
2018-03-03T08:19:41.914Z,98.29
2018-03-03T08:20:41.915Z,97.91
2018-03-03T08:21:41.941Z,97.91
2018-03-03T08:22:41.929Z,97.91
2018-03-03T08:23:41.932Z,96.97
2018-03-03T08:24:41.932Z,97.53
2018-03-03T08:25:41.939Z,96.59
2018-03-03T08:26:41.943Z,96.02
2018-03-03T08:27:41.954Z,96.40
2018-03-03T08:28:41.950Z,96.78
2018-03-03T08:29:41.955Z,96.12
2018-03-03T08:30:41.961Z,96.40
2018-03-03T08:31:41.966Z,96.69
2018-03-03T08:32:41.976Z,96.88
2018-03-03T08:33:41.985Z,96.69
2018-03-03T08:34:41.987Z,96.02
2018-03-03T08:35:41.986Z,96.78
2018-03-03T08:36:42.000Z,96.02
2018-03-03T08:37:41.998Z,96.35
2018-03-03T08:38:42.002Z,95.83
2018-03-03T08:39:42.011Z,95.93
2018-03-03T08:40:42.012Z,95.17
2018-03-03T08:41:42.020Z,95.12
2018-03-03T08:42:42.023Z,95.69
2018-03-03T08:43:42.042Z,95.03
2018-03-03T08:44:42.034Z,95.50
2018-03-03T08:45:42.043Z,95.03
2018-03-03T08:46:42.051Z,94.37
2018-03-03T08:47:42.060Z,94.56
2018-03-03T08:48:42.055Z,94.56
2018-03-03T08:49:42.062Z,93.89
2018-03-03T08:50:42.067Z,93.89
2018-03-03T08:51:42.106Z,93.37
2018-03-03T08:52:42.085Z,94.27
2018-03-03T08:53:42.087Z,94.56
2018-03-03T08:54:42.088Z,94.74
2018-03-03T08:55:42.099Z,95.26
2018-03-03T08:56:42.108Z,96.88
2018-03-03T08:57:42.106Z,96.88
2018-03-03T08:58:42.112Z,98.01
2018-03-03T08:59:42.128Z,98.77
2018-03-03T09:00:42.127Z,99.52
2018-03-03T09:01:42.130Z,99.99
2018-03-03T09:02:42.135Z,99.99
2018-03-03T09:03:42.146Z,99.99
2018-03-03T09:04:42.147Z,99.99
2018-03-03T09:05:42.148Z,99.99
2018-03-03T09:06:42.159Z,99.99
2018-03-03T09:07:42.174Z,99.99
2018-03-03T09:08:42.172Z,99.99
2018-03-03T09:09:42.173Z,99.99
2018-03-03T09:10:42.180Z,99.99
2018-03-03T09:11:42.196Z,99.99
2018-03-03T09:12:42.204Z,99.99
2018-03-03T09:13:42.211Z,99.90
2018-03-03T09:14:42.203Z,99.24
2018-03-03T09:15:42.207Z,99.43
2018-03-03T09:16:42.213Z,99.52
2018-03-03T09:17:42.218Z,99.99
2018-03-03T09:18:42.229Z,99.99
2018-03-03T09:19:42.229Z,99.71
2018-03-03T09:20:42.241Z,99.99
2018-03-03T09:21:42.246Z,99.99
2018-03-03T09:22:42.247Z,99.99
2018-03-03T09:23:42.264Z,99.99
2018-03-03T09:24:42.256Z,99.33
2018-03-03T09:25:42.264Z,99.10
2018-03-03T09:26:42.269Z,98.72
2018-03-03T09:27:42.289Z,98.63
2018-03-03T09:28:42.284Z,97.58
2018-03-03T09:29:42.285Z,97.20
2018-03-03T09:30:42.305Z,96.83
2018-03-03T09:31:42.301Z,96.92
2018-03-03T09:32:42.304Z,97.11
2018-03-03T09:33:42.318Z,97.02
2018-03-03T09:34:42.315Z,96.26
2018-03-03T09:35:42.321Z,97.02
2018-03-03T09:36:42.337Z,97.02
2018-03-03T09:37:42.331Z,95.59
2018-03-03T09:38:42.339Z,95.69
2018-03-03T09:39:42.360Z,95.12
2018-03-03T09:40:42.355Z,95.17
2018-03-03T09:41:42.354Z,94.37
2018-03-03T09:42:42.361Z,94.42
2018-03-03T09:43:42.371Z,94.51
2018-03-03T09:44:42.378Z,93.84
2018-03-03T09:45:42.386Z,93.37
2018-03-03T09:46:42.389Z,92.43
2018-03-03T09:47:42.395Z,93.18
2018-03-03T09:48:42.398Z,92.33
2018-03-03T09:49:42.405Z,91.29
2018-03-03T09:50:42.410Z,91.48
2018-03-03T09:51:42.418Z,92.52
2018-03-03T09:52:42.433Z,92.80
2018-03-03T09:53:42.431Z,92.71
2018-03-03T09:54:42.438Z,92.80
2018-03-03T09:55:42.443Z,92.33
2018-03-03T09:56:42.454Z,92.33
2018-03-03T09:57:42.462Z,92.71
2018-03-03T09:58:42.469Z,92.43
2018-03-03T09:59:42.468Z,93.04
2018-03-03T10:00:42.477Z,94.23
2018-03-03T10:01:43.361Z,93.37
2018-03-03T10:02:42.492Z,93.04
2018-03-03T10:03:42.498Z,93.46
2018-03-03T10:04:42.504Z,94.23
2018-03-03T10:05:42.520Z,94.04
2018-03-03T10:06:42.517Z,92.71
2018-03-03T10:07:42.523Z,93.84
2018-03-03T10:08:42.531Z,93.51
2018-03-03T10:09:42.534Z,94.42
2018-03-03T10:10:42.558Z,94.32
2018-03-03T10:11:42.550Z,94.70
2018-03-03T10:12:42.572Z,94.98
2018-03-03T10:13:42.572Z,94.32
2018-03-03T10:14:42.568Z,94.42
2018-03-03T10:15:42.580Z,93.94
2018-03-03T10:16:42.588Z,94.60
2018-03-03T10:17:42.594Z,94.60
2018-03-03T10:18:42.609Z,95.93
2018-03-03T10:19:42.604Z,95.26
2018-03-03T10:20:42.615Z,95.45
2018-03-03T10:21:42.628Z,94.51
2018-03-03T10:22:42.626Z,94.04
2018-03-03T10:23:42.634Z,93.65
2018-03-03T10:24:42.647Z,93.75
2018-03-03T10:25:42.645Z,93.80
2018-03-03T10:26:42.696Z,93.23
2018-03-03T10:27:42.672Z,92.19
2018-03-03T10:28:42.667Z,92.19
2018-03-03T10:29:42.680Z,92.38
2018-03-03T10:30:42.679Z,92.33
2018-03-03T10:31:42.700Z,92.71
2018-03-03T10:32:42.709Z,93.27
2018-03-03T10:33:42.700Z,92.71
2018-03-03T10:34:42.705Z,93.08
2018-03-03T10:35:42.715Z,94.23
2018-03-03T10:36:42.727Z,93.99
2018-03-03T10:37:42.730Z,93.70
2018-03-03T10:38:42.745Z,92.57
2018-03-03T10:39:42.760Z,92.47
2018-03-03T10:40:42.755Z,91.33
2018-03-03T10:41:42.754Z,91.52
2018-03-03T10:42:42.780Z,90.58
2018-03-03T10:43:42.769Z,91.43
2018-03-03T10:44:42.786Z,90.77
2018-03-03T10:45:42.790Z,90.05
2018-03-03T10:46:42.804Z,89.29
2018-03-03T10:47:42.808Z,88.59
2018-03-03T10:48:42.816Z,89.06
2018-03-03T10:49:42.867Z,88.87
2018-03-03T10:50:42.845Z,89.06
2018-03-03T10:51:42.828Z,88.78
2018-03-03T10:52:42.835Z,89.20
2018-03-03T10:53:42.843Z,88.06
2018-03-03T10:54:42.857Z,87.30
2018-03-03T10:55:42.863Z,87.21
2018-03-03T10:56:42.900Z,87.87
2018-03-03T10:57:42.886Z,88.44
2018-03-03T10:58:42.882Z,88.73
2018-03-03T10:59:42.901Z,89.29
2018-03-03T11:00:42.897Z,88.92
2018-03-03T11:01:42.911Z,89.39
2018-03-03T11:02:42.910Z,88.92
2018-03-03T11:03:42.921Z,88.25
2018-03-03T11:04:42.961Z,87.77
2018-03-03T11:05:42.935Z,88.35
2018-03-03T11:06:42.944Z,88.06
2018-03-03T11:07:42.949Z,88.54
2018-03-03T11:08:42.956Z,87.87
2018-03-03T11:09:42.971Z,88.82
2018-03-03T11:10:42.972Z,88.92
2018-03-03T11:11:42.982Z,89.01
2018-03-03T11:12:43.098Z,88.35
2018-03-03T11:13:42.996Z,87.77
2018-03-03T11:14:43.005Z,88.44
2018-03-03T11:15:43.015Z,87.59
2018-03-03T11:16:43.023Z,87.12
2018-03-03T11:17:43.030Z,88.10
2018-03-03T11:18:43.062Z,87.49
2018-03-03T11:19:43.048Z,88.44
2018-03-03T11:20:43.055Z,88.82
2018-03-03T11:21:43.063Z,89.29
2018-03-03T11:22:43.069Z,88.06
2018-03-03T11:23:43.077Z,87.77
2018-03-03T11:24:43.084Z,87.59
2018-03-03T11:25:43.090Z,88.82
2018-03-03T11:26:43.103Z,89.29
2018-03-03T11:27:43.155Z,88.39
2018-03-03T11:28:43.125Z,88.29
2018-03-03T11:29:43.121Z,87.92
2018-03-03T11:30:43.131Z,87.77
2018-03-03T11:31:43.143Z,87.92
2018-03-03T11:32:43.147Z,88.29
2018-03-03T11:33:43.161Z,87.82
2018-03-03T11:34:43.166Z,87.45
2018-03-03T11:35:43.178Z,87.16
2018-03-03T11:36:43.180Z,86.68
2018-03-03T11:37:43.209Z,86.59
2018-03-03T11:38:43.193Z,86.97
2018-03-03T11:39:43.201Z,87.73
2018-03-03T11:40:43.218Z,87.63
2018-03-03T11:41:43.223Z,87.82
2018-03-03T11:42:43.229Z,87.82
2018-03-03T11:43:43.240Z,88.39
2018-03-03T11:44:43.242Z,88.48
2018-03-03T11:45:43.254Z,87.63
2018-03-03T11:46:43.259Z,88.24
2018-03-03T11:47:43.268Z,87.45
2018-03-03T11:48:43.277Z,87.16
2018-03-03T11:49:43.284Z,88.20
2018-03-03T11:50:43.292Z,87.68
2018-03-03T11:51:43.312Z,87.20
2018-03-03T11:52:43.308Z,86.72
2018-03-03T11:53:43.313Z,86.59
2018-03-03T11:54:43.325Z,86.30
2018-03-03T11:55:43.343Z,86.11
2018-03-03T11:56:43.346Z,86.11
2018-03-03T11:57:43.351Z,87.16
2018-03-03T11:58:43.371Z,87.06
2018-03-03T11:59:43.368Z,88.10
2018-03-03T12:00:43.372Z,88.16
2018-03-03T12:01:43.380Z,89.53
2018-03-03T12:02:43.390Z,89.15
2018-03-03T12:03:43.401Z,88.58
2018-03-03T12:04:43.409Z,88.87
2018-03-03T12:05:43.410Z,88.77
2018-03-03T12:06:43.426Z,88.01
2018-03-03T12:07:43.436Z,88.20
2018-03-03T12:08:43.439Z,88.87
2018-03-03T12:09:43.448Z,88.96
2018-03-03T12:10:43.458Z,89.06
2018-03-03T12:11:43.465Z,88.01
2018-03-03T12:12:43.469Z,88.20
2018-03-03T12:13:43.473Z,88.68
2018-03-03T12:14:43.490Z,87.92
2018-03-03T12:15:43.490Z,88.10
2018-03-03T12:16:43.539Z,88.20
2018-03-03T12:17:43.543Z,87.73
2018-03-03T12:18:43.515Z,87.63
2018-03-03T12:19:43.522Z,87.63
2018-03-03T12:20:43.530Z,87.35
2018-03-03T12:21:43.540Z,87.82
2018-03-03T12:22:43.544Z,88.20
2018-03-03T12:23:43.568Z,89.15
2018-03-03T12:24:43.558Z,88.96
2018-03-03T12:25:43.565Z,89.25
2018-03-03T12:26:43.580Z,89.43
2018-03-03T12:27:43.582Z,88.96
2018-03-03T12:28:43.588Z,89.62
2018-03-03T12:29:43.605Z,90.05
2018-03-03T12:30:43.604Z,90.62
2018-03-03T12:31:43.611Z,90.62
2018-03-03T12:32:43.621Z,90.43
2018-03-03T12:33:43.629Z,90.81
2018-03-03T12:34:43.636Z,90.72
2018-03-03T12:35:43.691Z,90.91
2018-03-03T12:36:43.653Z,91.00
2018-03-03T12:37:43.655Z,90.91
2018-03-03T12:38:43.667Z,91.00
2018-03-03T12:39:43.674Z,90.43
2018-03-03T12:40:43.677Z,91.00
2018-03-03T12:41:43.689Z,91.00
2018-03-03T12:42:43.697Z,91.47
2018-03-03T12:43:43.703Z,91.47
2018-03-03T12:44:43.709Z,91.38
2018-03-03T12:45:43.736Z,91.28
2018-03-03T12:46:43.724Z,90.81
2018-03-03T12:47:43.746Z,90.62
2018-03-03T12:48:43.738Z,90.34
2018-03-03T12:49:43.749Z,90.43
2018-03-03T12:50:43.756Z,90.81
2018-03-03T12:51:43.766Z,91.00
2018-03-03T12:52:43.772Z,91.38